createdAt,value
2017-09-24T00:00:02.606Z,92.7
2017-09-24T00:05:03.372Z,93.1
2017-09-24T00:10:05.099Z,93.8
2017-09-24T00:15:15.520Z,93.5
2017-09-24T00:20:05.912Z,93.6
2017-09-24T00:25:07.755Z,93.6
2017-09-24T00:30:06.053Z,93.5
2017-09-24T00:35:07.885Z,93.9
2017-09-24T00:40:05.618Z,94
2017-09-24T00:45:08.421Z,93.8
2017-09-24T00:50:03.175Z,93.8
2017-09-24T00:55:05.469Z,93.5
2017-09-24T01:00:05.764Z,93.5
2017-09-24T01:05:03.504Z,93.5
2017-09-24T01:10:02.722Z,93.7
2017-09-24T01:15:06.011Z,94
2017-09-24T01:20:15.454Z,94.1
2017-09-24T01:25:03.169Z,94
2017-09-24T01:30:02.967Z,94
2017-09-24T01:35:05.245Z,94.4
2017-09-24T01:40:06.053Z,94.6
2017-09-24T01:45:02.776Z,94.6
2017-09-24T01:50:03.533Z,94.8
2017-09-24T01:55:03.284Z,94.5
2017-09-24T02:00:10.666Z,94.3
2017-09-24T02:05:05.947Z,94.6
2017-09-24T02:10:10.750Z,94.8
2017-09-24T02:15:03.503Z,94.8
2017-09-24T02:20:03.358Z,94.7
2017-09-24T02:25:30.958Z,94.6
2017-09-24T02:30:02.698Z,94.6
2017-09-24T02:35:03.455Z,94.6
2017-09-24T02:40:07.759Z,94.6
2017-09-24T02:45:06.061Z,94.5
2017-09-24T02:50:02.793Z,94.5
2017-09-24T02:55:05.084Z,94.5
2017-09-24T03:00:02.841Z,94.5
2017-09-24T03:05:10.213Z,94.7
2017-09-24T03:10:16.124Z,94.9
2017-09-24T03:15:10.456Z,95.1
2017-09-24T03:20:05.786Z,95.5
2017-09-24T03:25:25.342Z,95.2
2017-09-24T03:30:15.773Z,95.1
2017-09-24T03:35:03.525Z,95.1
2017-09-24T03:40:05.305Z,95.4
2017-09-24T03:45:10.639Z,95
2017-09-24T03:50:05.941Z,94.9
2017-09-24T03:55:10.289Z,95
2017-09-24T04:00:03.038Z,95
2017-09-24T04:05:02.797Z,95.1
2017-09-24T04:10:20.766Z,95
2017-09-24T04:15:06.083Z,94.9
2017-09-24T04:20:08.004Z,94.7
2017-09-24T04:25:02.736Z,94.7
2017-09-24T04:30:03.532Z,95
2017-09-24T04:35:10.872Z,95.4
2017-09-24T04:40:03.153Z,95.4
2017-09-24T04:45:02.872Z,95.6
2017-09-24T04:50:05.334Z,95.8
2017-09-24T04:55:08.147Z,96.1
2017-09-24T05:00:10.474Z,96.1
2017-09-24T05:05:03.231Z,96.1
2017-09-24T05:10:21.162Z,95.7
2017-09-24T05:15:02.914Z,95.7
2017-09-24T05:20:05.254Z,96
2017-09-24T05:25:20.710Z,96.1
2017-09-24T05:30:05.986Z,96.2
2017-09-24T05:35:02.714Z,96.2
2017-09-24T05:40:05.443Z,96.4
2017-09-24T05:45:31.012Z,96.2
2017-09-24T05:50:02.755Z,96.2
2017-09-24T05:55:03.490Z,95.8
2017-09-24T06:00:03.273Z,95.7
2017-09-24T06:05:05.635Z,95.5
2017-09-24T06:10:05.411Z,95.5
2017-09-24T06:15:18.366Z,95.3
2017-09-24T06:20:18.352Z,95.3
2017-09-24T06:25:03.105Z,95.3
2017-09-24T06:30:07.686Z,95.4
2017-09-24T06:35:21.145Z,95.1
2017-09-24T06:45:15.720Z,95.8
2017-09-24T06:50:12.969Z,95.7
2017-09-24T06:55:12.855Z,95.5
2017-09-24T07:05:10.842Z,95.6
2017-09-24T07:10:03.065Z,95.6
2017-09-24T07:15:02.843Z,95.4
2017-09-24T07:20:10.260Z,95.1
2017-09-24T07:25:03.003Z,95.1
2017-09-24T07:30:07.811Z,95.2
2017-09-24T07:35:05.070Z,95.4
2017-09-24T07:40:03.326Z,95.4
2017-09-24T07:45:15.815Z,95.3
2017-09-24T07:50:02.532Z,95.3
2017-09-24T07:55:15.926Z,95.3
2017-09-24T08:00:02.685Z,95.3
2017-09-24T08:05:03.442Z,95.3
2017-09-24T08:10:22.931Z,95.4
2017-09-24T08:15:07.734Z,95.5
2017-09-24T08:20:05.126Z,95.5
2017-09-24T08:25:18.058Z,95.4
2017-09-24T08:30:02.865Z,95.5
2017-09-24T08:35:02.594Z,95.3
2017-09-24T08:40:18.015Z,95.5
2017-09-24T08:45:05.324Z,95.3
2017-09-24T08:50:18.269Z,95.5
2017-09-24T08:55:05.543Z,95.6
2017-09-24T09:00:03.330Z,95.6
2017-09-24T09:05:10.679Z,95.5
2017-09-24T09:10:15.602Z,95.8
2017-09-24T09:15:05.882Z,95.3
2017-09-24T09:20:02.691Z,95.3
2017-09-24T09:25:05.999Z,95.4
2017-09-24T09:30:02.745Z,95.4
2017-09-24T09:35:03.528Z,94.8
2017-09-24T09:40:15.436Z,94.7
2017-09-24T09:45:15.838Z,94.3
2017-09-24T09:50:17.750Z,94
2017-09-24T09:55:16.151Z,94.1
2017-09-24T10:00:07.951Z,94
2017-09-24T10:05:02.706Z,94
2017-09-24T10:10:08.046Z,93.9
2017-09-24T10:15:10.412Z,93.9
2017-09-24T10:20:20.951Z,93.9
2017-09-24T10:25:17.911Z,93.6
2017-09-24T10:30:05.255Z,93.4
2017-09-24T10:35:05.548Z,93.2
2017-09-24T10:40:07.821Z,93
2017-09-24T10:45:10.171Z,92.7
2017-09-24T10:50:07.972Z,92.5
2017-09-24T10:55:02.767Z,92.5
2017-09-24T11:00:03.526Z,92.9
2017-09-24T11:05:05.856Z,93.2
2017-09-24T11:10:08.162Z,93.2
2017-09-24T11:15:05.408Z,92.9
2017-09-24T11:20:08.300Z,92.6
2017-09-24T11:25:05.680Z,92.1
2017-09-24T11:30:11.059Z,92.7
2017-09-24T11:35:05.308Z,92.4
2017-09-24T11:40:03.533Z,92.4
2017-09-24T11:45:05.816Z,92.1
2017-09-24T11:50:02.579Z,92.1
2017-09-24T11:55:05.867Z,91.8
2017-09-24T12:00:02.631Z,91.8
2017-09-24T12:05:08.466Z,92.6
2017-09-24T12:10:02.705Z,92.6
2017-09-24T12:15:03.466Z,92.7
2017-09-24T12:20:15.954Z,92.3
2017-09-24T12:25:10.265Z,92.7
2017-09-24T12:30:05.568Z,92.7
2017-09-24T12:35:03.335Z,92.7
2017-09-24T12:40:02.589Z,91.9
2017-09-24T12:45:08.403Z,91.8
2017-09-24T12:50:03.165Z,79
2017-09-24T12:55:15.530Z,91.6
2017-09-24T13:00:05.805Z,91.2
2017-09-24T13:05:02.593Z,91.2
2017-09-24T13:10:05.402Z,91.1
2017-09-24T13:15:10.731Z,91.7
2017-09-24T13:20:03.368Z,91.7
2017-09-24T13:25:08.249Z,91.9
2017-09-24T13:30:03.169Z,91.9
2017-09-24T13:35:13.429Z,92
2017-09-24T13:40:03.342Z,92
2017-09-24T13:45:03.197Z,92.5
2017-09-24T13:50:06.004Z,92.5
2017-09-24T13:58:15.779Z,92.5
2017-09-24T14:00:06.047Z,92.1
2017-09-24T14:05:05.462Z,92.2
2017-09-24T14:10:03.175Z,92.2
2017-09-24T14:15:05.514Z,91.8
2017-09-24T14:20:21.106Z,91.6
2017-09-24T14:25:07.937Z,91.4
2017-09-24T14:30:05.487Z,91.2
2017-09-24T14:35:20.978Z,91.2
2017-09-24T14:40:05.847Z,90.4
2017-09-24T14:45:02.614Z,90.4
2017-09-24T14:50:05.966Z,90.5
2017-09-24T14:55:05.278Z,89.1
2017-09-24T15:00:05.550Z,87.1
2017-09-24T15:05:05.844Z,86
2017-09-24T15:10:08.101Z,84.1
2017-09-24T15:15:05.435Z,83.3
2017-09-24T15:20:10.876Z,80.5
2017-09-24T15:25:05.482Z,78.6
2017-09-24T15:30:08.290Z,78.7
2017-09-24T15:35:05.576Z,77.7
2017-09-24T15:40:15.420Z,79.9
2017-09-24T15:45:03.198Z,79.9
2017-09-24T16:48:54.171Z,88.2
2017-09-24T16:50:17.848Z,90.2
2017-09-24T16:55:07.681Z,92
2017-09-24T17:00:03.451Z,91.9
2017-09-24T17:05:08.295Z,93.6
2017-09-24T17:10:06.045Z,93.1
2017-09-24T17:15:05.286Z,93
2017-09-24T17:20:08.222Z,93.3
2017-09-24T17:25:08.039Z,93.1
2017-09-24T17:30:10.335Z,93
2017-09-24T17:35:03.093Z,93
2017-09-24T17:40:03.450Z,93.2
2017-09-24T17:45:05.827Z,93.4
2017-09-24T17:50:18.016Z,93.5
2017-09-24T17:55:02.790Z,93.5
2017-09-24T18:00:16.216Z,93.5
2017-09-24T18:05:15.648Z,93.3
2017-09-24T18:10:20.581Z,93.1
2017-09-24T18:15:03.306Z,93.1
2017-09-24T18:20:03.167Z,93.6
2017-09-24T18:25:05.486Z,93.9
2017-09-24T18:30:08.383Z,94.2
2017-09-24T18:35:18.308Z,94.1
2017-09-24T18:40:03.500Z,94.1
2017-09-24T18:45:05.797Z,94.4
2017-09-24T18:50:07.638Z,94.1
2017-09-24T18:55:05.948Z,94.1
2017-09-24T19:00:05.239Z,94.1
2017-09-24T19:05:05.535Z,94.3
2017-09-24T19:10:02.806Z,94.3
2017-09-24T19:15:02.699Z,94.5
2017-09-24T19:20:11.086Z,94.8
2017-09-24T19:25:05.435Z,94.8
2017-09-24T19:30:03.224Z,94.8
2017-09-24T19:35:03.027Z,94.7
2017-09-24T19:40:05.783Z,95
2017-09-24T19:45:16.191Z,94.9
2017-09-24T19:50:38.360Z,95.1
2017-09-24T19:55:08.159Z,95.1
2017-09-24T20:00:02.927Z,95.2
2017-09-24T20:05:02.678Z,95.2
2017-09-24T20:10:05.454Z,95.2
2017-09-24T20:15:10.830Z,95.4
2017-09-24T20:20:07.750Z,95.5
2017-09-24T20:25:08.566Z,95.8
2017-09-24T20:30:03.320Z,95.7
2017-09-24T20:35:08.190Z,95.8
2017-09-24T20:40:03.442Z,95.8
2017-09-24T20:45:08.260Z,95.7
2017-09-24T20:50:15.694Z,95.2
2017-09-24T20:55:05.987Z,95.3
2017-09-24T21:00:07.813Z,95.3
2017-09-24T21:05:05.096Z,95.4
2017-09-24T21:10:10.943Z,95.6
2017-09-24T21:15:15.355Z,95.6
2017-09-24T21:20:08.316Z,95.7
2017-09-24T21:25:10.663Z,95.7
2017-09-24T21:30:07.773Z,95.7
2017-09-24T21:35:23.758Z,95.7
2017-09-24T21:40:30.821Z,95.7
2017-09-24T21:45:05.095Z,95.7
2017-09-24T21:50:02.869Z,95.7
2017-09-24T21:55:02.632Z,95.7
2017-09-24T22:00:03.428Z,95.6
2017-09-24T22:05:03.256Z,95.4
2017-09-24T22:10:18.659Z,95.4
2017-09-24T22:15:21.111Z,95.3
2017-09-24T22:20:05.512Z,95.5
2017-09-24T22:25:15.907Z,95.6
2017-09-24T22:30:02.671Z,95.6
2017-09-24T22:35:21.118Z,95.6
2017-09-24T22:40:03.432Z,95.6
2017-09-24T22:45:08.242Z,95.6
2017-09-24T22:50:03.005Z,95.6
2017-09-24T22:55:28.080Z,95.7
2017-09-24T23:00:08.131Z,95.6
2017-09-24T23:05:07.958Z,95.6
2017-09-24T23:10:03.194Z,95.5
2017-09-24T23:15:15.612Z,95.4
2017-09-24T23:20:18.597Z,95.5
2017-09-24T23:25:31.143Z,95.5
2017-09-24T23:30:05.447Z,95.5
2017-09-24T23:35:03.562Z,95.5
2017-09-24T23:40:05.362Z,95.4
2017-09-24T23:45:10.713Z,95.5
2017-09-24T23:50:08.525Z,95.5
2017-09-24T23:55:10.876Z,95.4
